sensor_id;sensor_type;location;lat;lon;timestamp;pressure;altitude;pressure_sealevel;temperature;humidity
36598;BME280;22607;49.550;11.940;2023-07-13T00:00:47;96664.69;;;23.04;90.97
36598;BME280;22607;49.550;11.940;2023-07-13T00:03:14;96661.44;;;23.02;91.81
36598;BME280;22607;49.550;11.940;2023-07-13T00:05:40;96666.03;;;23.06;90.45
36598;BME280;22607;49.550;11.940;2023-07-13T00:08:07;96662.31;;;23.13;90.59
36598;BME280;22607;49.550;11.940;2023-07-13T00:10:39;96666.84;;;23.07;93.12
36598;BME280;22607;49.550;11.940;2023-07-13T00:13:07;96660.53;;;22.86;92.95
36598;BME280;22607;49.550;11.940;2023-07-13T00:15:34;96666.72;;;22.91;93.71
36598;BME280;22607;49.550;11.940;2023-07-13T00:18:02;96659.53;;;22.64;97.29
36598;BME280;22607;49.550;11.940;2023-07-13T00:20:29;96651.22;;;22.61;97.59
36598;BME280;22607;49.550;11.940;2023-07-13T00:22:55;96660.16;;;22.44;100.00
36598;BME280;22607;49.550;11.940;2023-07-13T00:25:23;96650.75;;;22.14;100.00
36598;BME280;22607;49.550;11.940;2023-07-13T00:27:55;96670.03;;;22.43;100.00
36598;BME280;22607;49.550;11.940;2023-07-13T00:30:22;96664.34;;;22.35;100.00
36598;BME280;22607;49.550;11.940;2023-07-13T00:32:48;96659.63;;;22.47;99.07
36598;BME280;22607;49.550;11.940;2023-07-13T00:35:15;96670.34;;;22.47;99.57
36598;BME280;22607;49.550;11.940;2023-07-13T00:37:43;96665.84;;;22.25;100.00
36598;BME280;22607;49.550;11.940;2023-07-13T00:40:12;96671.34;;;22.41;100.00
36598;BME280;22607;49.550;11.940;2023-07-13T00:42:40;96672.16;;;22.41;100.00
36598;BME280;22607;49.550;11.940;2023-07-13T00:47:40;96664.06;;;22.09;100.00
36598;BME280;22607;49.550;11.940;2023-07-13T00:50:09;96658.91;;;22.29;100.00
36598;BME280;22607;49.550;11.940;2023-07-13T00:52:38;96647.38;;;22.24;100.00
36598;BME280;22607;49.550;11.940;2023-07-13T00:55:07;96649.38;;;22.11;100.00
36598;BME280;22607;49.550;11.940;2023-07-13T00:57:36;96656.00;;;22.03;100.00
36598;BME280;22607;49.550;11.940;2023-07-13T01:00:05;96652.13;;;22.16;100.00
36598;BME280;22607;49.550;11.940;2023-07-13T01:02:33;96652.94;;;22.17;100.00
36598;BME280;22607;49.550;11.940;2023-07-13T01:05:00;96648.50;;;22.28;100.00
36598;BME280;22607;49.550;11.940;2023-07-13T01:07:28;96649.19;;;22.18;98.99
36598;BME280;22607;49.550;11.940;2023-07-13T01:09:54;96653.47;;;22.19;98.55
36598;BME280;22607;49.550;11.940;2023-07-13T01:12:21;96646.50;;;22.18;97.97
36598;BME280;22607;49.550;11.940;2023-07-13T01:14:47;96662.06;;;22.21;98.63
36598;BME280;22607;49.550;11.940;2023-07-13T01:17:14;96650.16;;;22.07;97.69
36598;BME280;22607;49.550;11.940;2023-07-13T01:19:44;96654.88;;;21.99;100.00
36598;BME280;22607;49.550;11.940;2023-07-13T01:22:12;96659.16;;;22.00;100.00
36598;BME280;22607;49.550;11.940;2023-07-13T01:24:41;96633.28;;;21.79;100.00
36598;BME280;22607;49.550;11.940;2023-07-13T01:27:10;96650.03;;;21.74;100.00
36598;BME280;22607;49.550;11.940;2023-07-13T01:29:39;96654.56;;;21.73;100.00
36598;BME280;22607;49.550;11.940;2023-07-13T01:32:16;96665.41;;;21.84;100.00
36598;BME280;22607;49.550;11.940;2023-07-13T01:34:43;96649.06;;;21.63;100.00
36598;BME280;22607;49.550;11.940;2023-07-13T01:37:12;96655.41;;;21.57;100.00
36598;BME280;22607;49.550;11.940;2023-07-13T01:39:41;96661.13;;;21.43;100.00
36598;BME280;22607;49.550;11.940;2023-07-13T01:42:08;96658.50;;;21.48;100.00
36598;BME280;22607;49.550;11.940;2023-07-13T01:44:35;96663.38;;;21.51;100.00
36598;BME280;22607;49.550;11.940;2023-07-13T01:47:02;96649.72;;;21.31;100.00
36598;BME280;22607;49.550;11.940;2023-07-13T01:49:28;96650.53;;;21.31;100.00
36598;BME280;22607;49.550;11.940;2023-07-13T01:51:55;96661.06;;;21.38;100.00
36598;BME280;22607;49.550;11.940;2023-07-13T01:54:21;96659.28;;;21.44;100.00
36598;BME280;22607;49.550;11.940;2023-07-13T01:56:48;96657.31;;;21.39;100.00
36598;BME280;22607;49.550;11.940;2023-07-13T01:59:16;96658.63;;;21.36;100.00
36598;BME280;22607;49.550;11.940;2023-07-13T02:01:42;96661.31;;;21.19;100.00
36598;BME280;22607;49.550;11.940;2023-07-13T02:04:09;96648.59;;;21.27;100.00
36598;BME280;22607;49.550;11.940;2023-07-13T02:06:37;96645.84;;;21.21;100.00
36598;BME280;22607;49.550;11.940;2023-07-13T02:09:03;96648.16;;;21.13;100.00
36598;BME280;22607;49.550;11.940;2023-07-13T02:11:30;96643.63;;;21.13;100.00
36598;BME280;22607;49.550;11.940;2023-07-13T02:14:02;96658.06;;;21.17;100.00
36598;BME280;22607;49.550;11.940;2023-07-13T02:16:30;96653.19;;;21.09;100.00
36598;BME280;22607;49.550;11.940;2023-07-13T02:18:57;96658.91;;;21.01;100.00
36598;BME280;22607;49.550;11.940;2023-07-13T02:21:24;96658.19;;;21.05;100.00
36598;BME280;22607;49.550;11.940;2023-07-13T02:23:50;96638.94;;;20.86;100.00
36598;BME280;22607;49.550;11.940;2023-07-13T02:26:17;96657.13;;;20.89;100.00
36598;BME280;22607;49.550;11.940;2023-07-13T02:28:44;96648.00;;;20.85;100.00
36598;BME280;22607;49.550;11.940;2023-07-13T02:31:13;96652.34;;;20.74;100.00
36598;BME280;22607;49.550;11.940;2023-07-13T02:33:41;96645.56;;;20.66;100.00
36598;BME280;22607;49.550;11.940;2023-07-13T02:36:09;96642.16;;;20.71;100.00
36598;BME280;22607;49.550;11.940;2023-07-13T02:38:36;96644.19;;;20.81;100.00
36598;BME280;22607;49.550;11.940;2023-07-13T02:41:04;96643.06;;;20.77;100.00
36598;BME280;22607;49.550;11.940;2023-07-13T02:43:31;96652.09;;;20.58;100.00
36598;BME280;22607;49.550;11.940;2023-07-13T02:45:59;96659.16;;;20.36;100.00
36598;BME280;22607;49.550;11.940;2023-07-13T02:48:30;96669.97;;;20.58;100.00
36598;BME280;22607;49.550;11.940;2023-07-13T02:50:57;96671.16;;;20.50;100.00
36598;BME280;22607;49.550;11.940;2023-07-13T02:53:23;96666.44;;;20.40;100.00
36598;BME280;22607;49.550;11.940;2023-07-13T02:55:50;96675.50;;;20.39;99.20
36598;BME280;22607;49.550;11.940;2023-07-13T02:58:17;96665.97;;;20.43;96.83
36598;BME280;22607;49.550;11.940;2023-07-13T03:00:45;96666.53;;;20.45;98.94
36598;BME280;22607;49.550;11.940;2023-07-13T03:03:13;96669.59;;;20.37;100.00
36598;BME280;22607;49.550;11.940;2023-07-13T03:05:42;96655.84;;;20.28;100.00
36598;BME280;22607;49.550;11.940;2023-07-13T03:08:10;96670.31;;;20.32;100.00
36598;BME280;22607;49.550;11.940;2023-07-13T03:10:37;96661.31;;;20.22;100.00
36598;BME280;22607;49.550;11.940;2023-07-13T03:13:06;96673.69;;;20.28;99.66
36598;BME280;22607;49.550;11.940;2023-07-13T03:15:32;96670.66;;;20.07;100.00
36598;BME280;22607;49.550;11.940;2023-07-13T03:18:00;96682.50;;;19.87;100.00
36598;BME280;22607;49.550;11.940;2023-07-13T03:20:26;96679.44;;;19.96;100.00
36598;BME280;22607;49.550;11.940;2023-07-13T03:22:53;96678.56;;;20.02;100.00
36598;BME280;22607;49.550;11.940;2023-07-13T03:25:20;96678.59;;;19.78;100.00
36598;BME280;22607;49.550;11.940;2023-07-13T03:27:47;96690.28;;;19.77;100.00
36598;BME280;22607;49.550;11.940;2023-07-13T03:30:14;96680.22;;;19.79;100.00
36598;BME280;22607;49.550;11.940;2023-07-13T03:32:40;96681.03;;;19.55;100.00
36598;BME280;22607;49.550;11.940;2023-07-13T03:35:08;96694.13;;;19.57;100.00
36598;BME280;22607;49.550;11.940;2023-07-13T03:37:36;96691.34;;;19.64;100.00
36598;BME280;22607;49.550;11.940;2023-07-13T03:40:10;96694.00;;;19.64;100.00
36598;BME280;22607;49.550;11.940;2023-07-13T03:42:37;96704.56;;;19.59;100.00
36598;BME280;22607;49.550;11.940;2023-07-13T03:45:04;96698.78;;;19.50;100.00
36598;BME280;22607;49.550;11.940;2023-07-13T03:47:30;96709.78;;;19.41;100.00
36598;BME280;22607;49.550;11.940;2023-07-13T03:49:58;96698.66;;;19.33;100.00
36598;BME280;22607;49.550;11.940;2023-07-13T03:52:24;96710.59;;;19.30;100.00
36598;BME280;22607;49.550;11.940;2023-07-13T03:54:51;96701.81;;;19.30;100.00
36598;BME280;22607;49.550;11.940;2023-07-13T03:57:18;96713.94;;;19.37;100.00
36598;BME280;22607;49.550;11.940;2023-07-13T03:59:45;96715.69;;;19.44;100.00
36598;BME280;22607;49.550;11.940;2023-07-13T04:02:11;96712.44;;;19.41;100.00
36598;BME280;22607;49.550;11.940;2023-07-13T04:04:38;96716.16;;;19.40;100.00
36598;BME280;22607;49.550;11.940;2023-07-13T04:07:07;96716.28;;;19.46;100.00
36598;BME280;22607;49.550;11.940;2023-07-13T04:09:35;96721.81;;;19.32;100.00
36598;BME280;22607;49.550;11.940;2023-07-13T04:12:02;96716.63;;;19.37;100.00
36598;BME280;22607;49.550;11.940;2023-07-13T04:14:28;96718.34;;;19.20;100.00
36598;BME280;22607;49.550;11.940;2023-07-13T04:16:55;96728.06;;;19.26;100.00
36598;BME280;22607;49.550;11.940;2023-07-13T04:19:22;96719.97;;;19.33;100.00
36598;BME280;22607;49.550;11.940;2023-07-13T04:21:49;96722.06;;;19.31;97.93
36598;BME280;22607;49.550;11.940;2023-07-13T04:24:16;96718.47;;;19.25;100.00
36598;BME280;22607;49.550;11.940;2023-07-13T04:26:42;96745.56;;;19.46;95.25
36598;BME280;22607;49.550;11.940;2023-07-13T04:29:09;96728.88;;;19.38;90.57
36598;BME280;22607;49.550;11.940;2023-07-13T04:31:35;96741.97;;;19.52;85.60
36598;BME280;22607;49.550;11.940;2023-07-13T04:34:02;96738.97;;;19.48;86.94
36598;BME280;22607;49.550;11.940;2023-07-13T04:36:30;96741.41;;;19.50;90.17
36598;BME280;22607;49.550;11.940;2023-07-13T04:38:57;96736.97;;;19.55;87.39
36598;BME280;22607;49.550;11.940;2023-07-13T04:41:23;96739.31;;;19.52;87.75
36598;BME280;22607;49.550;11.940;2023-07-13T04:43:50;96739.50;;;19.74;86.37
36598;BME280;22607;49.550;11.940;2023-07-13T04:46:17;96740.19;;;19.93;84.55
36598;BME280;22607;49.550;11.940;2023-07-13T04:48:45;96731.94;;;20.19;81.89
36598;BME280;22607;49.550;11.940;2023-07-13T04:51:12;96739.19;;;20.24;81.41
36598;BME280;22607;49.550;11.940;2023-07-13T04:53:38;96734.75;;;20.41;78.22
36598;BME280;22607;49.550;11.940;2023-07-13T04:56:05;96730.97;;;20.25;78.94
36598;BME280;22607;49.550;11.940;2023-07-13T04:58:33;96736.94;;;20.15;78.09
36598;BME280;22607;49.550;11.940;2023-07-13T05:01:04;96739.34;;;20.17;78.26
36598;BME280;22607;49.550;11.940;2023-07-13T05:03:31;96749.84;;;19.71;82.97
36598;BME280;22607;49.550;11.940;2023-07-13T05:06:00;96745.31;;;19.83;85.10
36598;BME280;22607;49.550;11.940;2023-07-13T05:08:27;96750.28;;;20.03;81.36
36598;BME280;22607;49.550;11.940;2023-07-13T05:10:54;96751.69;;;20.06;80.99
36598;BME280;22607;49.550;11.940;2023-07-13T05:13:21;96747.75;;;19.85;83.63
36598;BME280;22607;49.550;11.940;2023-07-13T05:15:56;96750.38;;;19.97;81.71
36598;BME280;22607;49.550;11.940;2023-07-13T05:18:23;96752.44;;;20.18;81.75
36598;BME280;22607;49.550;11.940;2023-07-13T05:21:03;96749.84;;;21.11;71.75
36598;BME280;22607;49.550;11.940;2023-07-13T05:23:30;96751.84;;;21.72;69.35
36598;BME280;22607;49.550;11.940;2023-07-13T05:25:57;96751.25;;;22.32;65.59
36598;BME280;22607;49.550;11.940;2023-07-13T05:28:26;96752.22;;;22.48;64.15
36598;BME280;22607;49.550;11.940;2023-07-13T05:30:54;96750.19;;;23.16;61.09
36598;BME280;22607;49.550;11.940;2023-07-13T05:33:21;96733.13;;;24.14;57.95
36598;BME280;22607;49.550;11.940;2023-07-13T05:35:48;96746.44;;;24.83;55.73
36598;BME280;22607;49.550;11.940;2023-07-13T05:38:14;96749.97;;;25.30;53.39
36598;BME280;22607;49.550;11.940;2023-07-13T05:40:45;96743.50;;;25.36;50.84
36598;BME280;22607;49.550;11.940;2023-07-13T05:43:12;96742.44;;;25.16;52.00
36598;BME280;22607;49.550;11.940;2023-07-13T05:45:39;96744.31;;;25.42;50.78
36598;BME280;22607;49.550;11.940;2023-07-13T05:48:06;96754.25;;;25.47;49.81
36598;BME280;22607;49.550;11.940;2023-07-13T05:50:32;96760.63;;;24.62;51.25
36598;BME280;22607;49.550;11.940;2023-07-13T05:52:59;96759.28;;;24.60;50.93
36598;BME280;22607;49.550;11.940;2023-07-13T05:55:25;96755.31;;;25.51;49.99
36598;BME280;22607;49.550;11.940;2023-07-13T05:57:52;96764.22;;;25.56;49.32
36598;BME280;22607;49.550;11.940;2023-07-13T06:00:19;96779.50;;;25.46;48.76
36598;BME280;22607;49.550;11.940;2023-07-13T06:02:46;96777.09;;;25.70;47.42
36598;BME280;22607;49.550;11.940;2023-07-13T06:05:12;96775.75;;;25.67;48.00
36598;BME280;22607;49.550;11.940;2023-07-13T06:07:39;96771.47;;;25.20;49.71
36598;BME280;22607;49.550;11.940;2023-07-13T06:10:06;96782.19;;;25.04;50.01
36598;BME280;22607;49.550;11.940;2023-07-13T06:12:33;96771.75;;;25.60;48.70
36598;BME280;22607;49.550;11.940;2023-07-13T06:14:59;96774.03;;;26.13;48.14
36598;BME280;22607;49.550;11.940;2023-07-13T06:17:26;96775.00;;;26.38;47.84
36598;BME280;22607;49.550;11.940;2023-07-13T06:19:53;96775.94;;;26.63;46.09
36598;BME280;22607;49.550;11.940;2023-07-13T06:22:19;96779.56;;;26.48;46.30
36598;BME280;22607;49.550;11.940;2023-07-13T06:24:46;96778.31;;;26.75;44.80
36598;BME280;22607;49.550;11.940;2023-07-13T06:27:13;96787.91;;;26.92;44.33
36598;BME280;22607;49.550;11.940;2023-07-13T06:29:39;96777.31;;;27.11;45.47
36598;BME280;22607;49.550;11.940;2023-07-13T06:32:08;96769.72;;;27.77;44.84
36598;BME280;22607;49.550;11.940;2023-07-13T06:34:34;96773.41;;;27.87;43.14
36598;BME280;22607;49.550;11.940;2023-07-13T06:37:01;96783.06;;;26.94;43.70
36598;BME280;22607;49.550;11.940;2023-07-13T06:39:27;96782.88;;;26.14;45.12
36598;BME280;22607;49.550;11.940;2023-07-13T06:41:54;96778.59;;;26.73;45.42
36598;BME280;22607;49.550;11.940;2023-07-13T06:44:20;96784.41;;;26.46;44.89
36598;BME280;22607;49.550;11.940;2023-07-13T06:46:47;96775.13;;;27.13;43.99
36598;BME280;22607;49.550;11.940;2023-07-13T06:49:14;96785.75;;;27.29;43.37
36598;BME280;22607;49.550;11.940;2023-07-13T06:51:40;96778.72;;;26.98;42.36
36598;BME280;22607;49.550;11.940;2023-07-13T06:54:07;96800.28;;;26.98;42.87
36598;BME280;22607;49.550;11.940;2023-07-13T06:56:33;96793.84;;;27.29;42.84
36598;BME280;22607;49.550;11.940;2023-07-13T06:59:00;96791.03;;;27.44;42.21
36598;BME280;22607;49.550;11.940;2023-07-13T07:01:27;96794.16;;;27.57;41.95
36598;BME280;22607;49.550;11.940;2023-07-13T07:03:53;96792.50;;;27.90;41.61
36598;BME280;22607;49.550;11.940;2023-07-13T07:06:22;96800.91;;;28.13;41.52
36598;BME280;22607;49.550;11.940;2023-07-13T07:08:52;96811.53;;;28.04;42.14
36598;BME280;22607;49.550;11.940;2023-07-13T07:11:22;96798.91;;;28.68;40.55
36598;BME280;22607;49.550;11.940;2023-07-13T07:13:53;96813.25;;;28.44;41.35
36598;BME280;22607;49.550;11.940;2023-07-13T07:16:20;96808.00;;;27.80;41.25
36598;BME280;22607;49.550;11.940;2023-07-13T07:18:47;96814.91;;;28.40;41.24
36598;BME280;22607;49.550;11.940;2023-07-13T07:21:14;96810.34;;;28.60;40.55
36598;BME280;22607;49.550;11.940;2023-07-13T07:23:41;96817.59;;;28.83;39.70
36598;BME280;22607;49.550;11.940;2023-07-13T07:26:08;96814.78;;;28.94;39.26
36598;BME280;22607;49.550;11.940;2023-07-13T07:28:36;96822.50;;;28.81;40.03
36598;BME280;22607;49.550;11.940;2023-07-13T07:31:06;96818.56;;;27.41;40.89
36598;BME280;22607;49.550;11.940;2023-07-13T07:33:35;96823.94;;;28.06;41.20
36598;BME280;22607;49.550;11.940;2023-07-13T07:36:04;96814.97;;;27.86;39.55
36598;BME280;22607;49.550;11.940;2023-07-13T07:38:34;96824.19;;;27.80;40.75
36598;BME280;22607;49.550;11.940;2023-07-13T07:41:04;96823.41;;;28.52;38.08
36598;BME280;22607;49.550;11.940;2023-07-13T07:43:34;96817.50;;;28.94;37.78
36598;BME280;22607;49.550;11.940;2023-07-13T07:46:02;96815.28;;;28.96;37.63
36598;BME280;22607;49.550;11.940;2023-07-13T07:48:30;96824.16;;;28.09;38.35
36598;BME280;22607;49.550;11.940;2023-07-13T07:50:57;96828.78;;;27.44;39.75
36598;BME280;22607;49.550;11.940;2023-07-13T07:53:24;96836.81;;;26.69;40.90
36598;BME280;22607;49.550;11.940;2023-07-13T07:55:51;96834.81;;;26.30;41.89
36598;BME280;22607;49.550;11.940;2023-07-13T07:58:20;96830.56;;;26.08;41.90
36598;BME280;22607;49.550;11.940;2023-07-13T08:00:50;96833.81;;;25.84;43.09
36598;BME280;22607;49.550;11.940;2023-07-13T08:03:19;96834.88;;;25.99;42.74
36598;BME280;22607;49.550;11.940;2023-07-13T08:05:52;96818.66;;;26.19;41.35
36598;BME280;22607;49.550;11.940;2023-07-13T08:08:39;96834.34;;;25.91;42.50
36598;BME280;22607;49.550;11.940;2023-07-13T08:11:07;96845.91;;;25.87;42.69
36598;BME280;22607;49.550;11.940;2023-07-13T08:13:37;96847.44;;;26.24;42.59
36598;BME280;22607;49.550;11.940;2023-07-13T08:16:05;96853.94;;;26.94;41.82
36598;BME280;22607;49.550;11.940;2023-07-13T08:18:35;96852.03;;;26.18;41.88
36598;BME280;22607;49.550;11.940;2023-07-13T08:21:05;96866.00;;;26.41;41.15
36598;BME280;22607;49.550;11.940;2023-07-13T08:23:33;96866.69;;;26.68;40.51
36598;BME280;22607;49.550;11.940;2023-07-13T08:26:00;96859.91;;;27.66;38.56
36598;BME280;22607;49.550;11.940;2023-07-13T08:28:31;96848.13;;;27.86;37.07
36598;BME280;22607;49.550;11.940;2023-07-13T08:31:03;96862.09;;;27.94;39.26
36598;BME280;22607;49.550;11.940;2023-07-13T08:33:30;96868.53;;;28.22;38.89
36598;BME280;22607;49.550;11.940;2023-07-13T08:35:56;96874.47;;;26.74;40.04
36598;BME280;22607;49.550;11.940;2023-07-13T08:38:23;96869.97;;;26.59;38.67
36598;BME280;22607;49.550;11.940;2023-07-13T08:40:56;96861.19;;;26.07;38.60
36598;BME280;22607;49.550;11.940;2023-07-13T08:43:26;96873.31;;;26.04;39.18
36598;BME280;22607;49.550;11.940;2023-07-13T08:45:56;96879.72;;;27.11;39.32
36598;BME280;22607;49.550;11.940;2023-07-13T08:48:32;96871.63;;;27.86;37.43
36598;BME280;22607;49.550;11.940;2023-07-13T08:51:08;96878.06;;;28.14;37.00
36598;BME280;22607;49.550;11.940;2023-07-13T08:53:38;96869.41;;;28.47;36.25
36598;BME280;22607;49.550;11.940;2023-07-13T08:56:18;96880.50;;;28.16;37.57
36598;BME280;22607;49.550;11.940;2023-07-13T08:58:50;96879.59;;;28.75;36.61
36598;BME280;22607;49.550;11.940;2023-07-13T09:04:32;96877.84;;;28.11;36.29
36598;BME280;22607;49.550;11.940;2023-07-13T09:07:16;96893.44;;;28.19;36.14
36598;BME280;22607;49.550;11.940;2023-07-13T09:12:35;96894.16;;;28.30;34.64
36598;BME280;22607;49.550;11.940;2023-07-13T09:15:19;96892.00;;;27.97;36.10
36598;BME280;22607;49.550;11.940;2023-07-13T09:17:55;96903.84;;;28.01;33.72
36598;BME280;22607;49.550;11.940;2023-07-13T09:20:25;96910.84;;;27.28;34.98
36598;BME280;22607;49.550;11.940;2023-07-13T09:22:53;96911.25;;;27.05;35.17
36598;BME280;22607;49.550;11.940;2023-07-13T09:25:24;96907.53;;;28.11;35.77
36598;BME280;22607;49.550;11.940;2023-07-13T09:27:58;96889.22;;;28.37;34.61
36598;BME280;22607;49.550;11.940;2023-07-13T09:30:38;96907.22;;;28.17;34.11
36598;BME280;22607;49.550;11.940;2023-07-13T09:33:07;96908.22;;;28.27;33.60
36598;BME280;22607;49.550;11.940;2023-07-13T09:35:34;96908.66;;;28.39;34.23
36598;BME280;22607;49.550;11.940;2023-07-13T09:38:15;96906.38;;;28.47;31.54
36598;BME280;22607;49.550;11.940;2023-07-13T09:41:20;96908.13;;;28.81;31.77
36598;BME280;22607;49.550;11.940;2023-07-13T09:44:10;96901.41;;;28.78;31.60
36598;BME280;22607;49.550;11.940;2023-07-13T09:46:43;96914.06;;;28.83;32.08
36598;BME280;22607;49.550;11.940;2023-07-13T09:49:10;96922.94;;;28.40;31.73
36598;BME280;22607;49.550;11.940;2023-07-13T09:51:38;96922.47;;;28.33;31.69
36598;BME280;22607;49.550;11.940;2023-07-13T09:54:18;96908.34;;;28.90;31.47
36598;BME280;22607;49.550;11.940;2023-07-13T09:56:45;96895.56;;;29.15;32.45
36598;BME280;22607;49.550;11.940;2023-07-13T09:59:22;96908.56;;;28.69;32.02
36598;BME280;22607;49.550;11.940;2023-07-13T10:01:50;96900.41;;;28.74;31.98
36598;BME280;22607;49.550;11.940;2023-07-13T10:04:18;96900.47;;;28.45;34.14
36598;BME280;22607;49.550;11.940;2023-07-13T10:06:46;96898.97;;;28.58;34.02
36598;BME280;22607;49.550;11.940;2023-07-13T10:09:16;96909.63;;;27.89;34.16
36598;BME280;22607;49.550;11.940;2023-07-13T10:11:45;96903.16;;;28.93;32.77
36598;BME280;22607;49.550;11.940;2023-07-13T10:14:17;96915.47;;;28.80;32.40
36598;BME280;22607;49.550;11.940;2023-07-13T10:16:46;96909.84;;;27.93;32.04
36598;BME280;22607;49.550;11.940;2023-07-13T10:19:18;96918.41;;;27.71;32.28
36598;BME280;22607;49.550;11.940;2023-07-13T10:21:54;96905.06;;;27.85;31.28
36598;BME280;22607;49.550;11.940;2023-07-13T10:24:23;96923.81;;;27.71;32.93
36598;BME280;22607;49.550;11.940;2023-07-13T10:29:27;96928.47;;;28.54;31.73
36598;BME280;22607;49.550;11.940;2023-07-13T10:31:55;96915.34;;;28.66;31.23
36598;BME280;22607;49.550;11.940;2023-07-13T10:34:24;96922.03;;;28.20;32.10
36598;BME280;22607;49.550;11.940;2023-07-13T10:36:51;96928.47;;;27.95;32.10
36598;BME280;22607;49.550;11.940;2023-07-13T10:39:25;96938.56;;;28.13;29.78
36598;BME280;22607;49.550;11.940;2023-07-13T10:41:55;96908.00;;;28.48;29.46
36598;BME280;22607;49.550;11.940;2023-07-13T10:44:28;96924.31;;;28.37;29.12
36598;BME280;22607;49.550;11.940;2023-07-13T10:47:01;96914.25;;;28.43;28.38
36598;BME280;22607;49.550;11.940;2023-07-13T10:49:31;96930.41;;;28.48;28.91
36598;BME280;22607;49.550;11.940;2023-07-13T10:51:58;96909.72;;;28.38;28.81
36598;BME280;22607;49.550;11.940;2023-07-13T10:54:30;96911.78;;;28.71;28.06
36598;BME280;22607;49.550;11.940;2023-07-13T10:57:19;96899.03;;;28.52;29.90
36598;BME280;22607;49.550;11.940;2023-07-13T11:00:14;96914.88;;;28.83;29.31
36598;BME280;22607;49.550;11.940;2023-07-13T11:02:41;96890.97;;;28.96;28.00
36598;BME280;22607;49.550;11.940;2023-07-13T11:05:32;96919.59;;;28.48;29.87
36598;BME280;22607;49.550;11.940;2023-07-13T11:08:19;96909.66;;;28.43;28.85
36598;BME280;22607;49.550;11.940;2023-07-13T11:10:55;96910.13;;;28.21;28.49
36598;BME280;22607;49.550;11.940;2023-07-13T11:21:21;96915.69;;;28.60;30.45
36598;BME280;22607;49.550;11.940;2023-07-13T11:24:16;96903.13;;;28.74;28.49
36598;BME280;22607;49.550;11.940;2023-07-13T11:32:00;96895.72;;;29.04;28.68
36598;BME280;22607;49.550;11.940;2023-07-13T11:34:31;96891.13;;;28.80;28.57
36598;BME280;22607;49.550;11.940;2023-07-13T11:37:00;96910.13;;;28.75;28.46
36598;BME280;22607;49.550;11.940;2023-07-13T11:39:39;96910.63;;;28.77;28.75
36598;BME280;22607;49.550;11.940;2023-07-13T11:42:16;96886.16;;;28.93;28.07
36598;BME280;22607;49.550;11.940;2023-07-13T11:44:48;96882.78;;;28.58;28.29
36598;BME280;22607;49.550;11.940;2023-07-13T11:47:34;96909.59;;;28.98;28.16
36598;BME280;22607;49.550;11.940;2023-07-13T11:50:16;96913.78;;;28.85;28.05
36598;BME280;22607;49.550;11.940;2023-07-13T11:52:44;96898.50;;;28.99;27.43
36598;BME280;22607;49.550;11.940;2023-07-13T11:55:16;96895.94;;;28.64;27.68
36598;BME280;22607;49.550;11.940;2023-07-13T11:57:49;96889.25;;;28.32;27.91
36598;BME280;22607;49.550;11.940;2023-07-13T12:00:36;96908.75;;;28.53;28.81
36598;BME280;22607;49.550;11.940;2023-07-13T12:03:04;96904.25;;;28.68;28.34
36598;BME280;22607;49.550;11.940;2023-07-13T12:05:32;96901.41;;;28.78;28.29
36598;BME280;22607;49.550;11.940;2023-07-13T12:07:59;96890.97;;;28.96;28.22
36598;BME280;22607;49.550;11.940;2023-07-13T12:10:34;96898.03;;;28.92;28.14
36598;BME280;22607;49.550;11.940;2023-07-13T12:13:03;96888.84;;;29.12;28.74
36598;BME280;22607;49.550;11.940;2023-07-13T12:18:20;96893.59;;;29.01;26.97
36598;BME280;22607;49.550;11.940;2023-07-13T12:20:49;96906.75;;;29.27;27.99
36598;BME280;22607;49.550;11.940;2023-07-13T12:23:26;96888.44;;;28.80;27.61
36598;BME280;22607;49.550;11.940;2023-07-13T12:25:55;96889.63;;;28.69;27.83
36598;BME280;22607;49.550;11.940;2023-07-13T12:28:34;96899.25;;;28.80;28.31
36598;BME280;22607;49.550;11.940;2023-07-13T12:31:04;96895.22;;;28.78;28.11
36598;BME280;22607;49.550;11.940;2023-07-13T12:33:32;96888.31;;;28.91;28.38
36598;BME280;22607;49.550;11.940;2023-07-13T12:36:03;96895.13;;;29.27;27.03
36598;BME280;22607;49.550;11.940;2023-07-13T12:38:32;96892.44;;;29.07;27.03
36598;BME280;22607;49.550;11.940;2023-07-13T12:41:01;96903.19;;;28.88;28.67
36598;BME280;22607;49.550;11.940;2023-07-13T12:43:28;96902.50;;;28.77;28.15
36598;BME280;22607;49.550;11.940;2023-07-13T12:46:21;96913.41;;;27.88;28.06
36598;BME280;22607;49.550;11.940;2023-07-13T12:48:52;96900.41;;;28.25;27.72
36598;BME280;22607;49.550;11.940;2023-07-13T12:51:38;96910.81;;;28.62;28.18
36598;BME280;22607;49.550;11.940;2023-07-13T12:54:26;96901.66;;;28.33;27.54
36598;BME280;22607;49.550;11.940;2023-07-13T12:56:54;96898.63;;;28.64;27.88
36598;BME280;22607;49.550;11.940;2023-07-13T12:59:22;96899.22;;;28.37;27.72
36598;BME280;22607;49.550;11.940;2023-07-13T13:01:49;96896.16;;;28.43;27.47
36598;BME280;22607;49.550;11.940;2023-07-13T13:04:17;96899.13;;;28.66;27.43
36598;BME280;22607;49.550;11.940;2023-07-13T13:06:49;96894.19;;;28.74;28.65
36598;BME280;22607;49.550;11.940;2023-07-13T13:09:27;96893.06;;;28.31;27.53
36598;BME280;22607;49.550;11.940;2023-07-13T13:11:53;96893.16;;;28.21;28.95
36598;BME280;22607;49.550;11.940;2023-07-13T13:14:20;96899.09;;;28.47;28.11
36598;BME280;22607;49.550;11.940;2023-07-13T13:16:49;96903.69;;;28.17;27.93
36598;BME280;22607;49.550;11.940;2023-07-13T13:19:22;96890.91;;;27.98;28.25
36598;BME280;22607;49.550;11.940;2023-07-13T13:21:52;96894.38;;;28.04;29.07
36598;BME280;22607;49.550;11.940;2023-07-13T13:24:22;96883.59;;;28.58;27.76
36598;BME280;22607;49.550;11.940;2023-07-13T13:26:50;96878.53;;;28.27;28.74